sensor_id;sensor_type;location;lat;lon;timestamp;pressure;altitude;pressure_sealevel;temperature;humidity
1848;BME280;924;52.448;13.356;2023-03-21T00:00:57;101086.31;;;14.10;50.63
1848;BME280;924;52.448;13.356;2023-03-21T00:03:23;101090.09;;;14.02;51.23
1848;BME280;924;52.448;13.356;2023-03-21T00:05:49;101082.34;;;14.06;51.10
1848;BME280;924;52.448;13.356;2023-03-21T00:08:18;101085.72;;;13.95;51.49
1848;BME280;924;52.448;13.356;2023-03-21T00:10:44;101084.84;;;14.01;51.08
1848;BME280;924;52.448;13.356;2023-03-21T00:13:11;101085.59;;;14.27;50.40
1848;BME280;924;52.448;13.356;2023-03-21T00:15:37;101077.00;;;13.86;51.39
1848;BME280;924;52.448;13.356;2023-03-21T00:18:14;101077.44;;;14.14;51.07
1848;BME280;924;52.448;13.356;2023-03-21T00:20:40;101080.72;;;13.92;51.35
1848;BME280;924;52.448;13.356;2023-03-21T00:23:06;101077.81;;;13.87;51.49
1848;BME280;924;52.448;13.356;2023-03-21T00:25:31;101072.78;;;13.84;51.56
1848;BME280;924;52.448;13.356;2023-03-21T00:27:57;101071.47;;;13.93;51.65
1848;BME280;924;52.448;13.356;2023-03-21T00:30:22;101065.94;;;14.12;51.08
1848;BME280;924;52.448;13.356;2023-03-21T00:32:48;101075.44;;;13.97;51.63
1848;BME280;924;52.448;13.356;2023-03-21T00:35:14;101071.72;;;13.85;52.23
1848;BME280;924;52.448;13.356;2023-03-21T00:37:40;101069.88;;;13.85;52.08
1848;BME280;924;52.448;13.356;2023-03-21T00:40:06;101068.25;;;14.15;50.83
1848;BME280;924;52.448;13.356;2023-03-21T00:42:35;101066.44;;;13.96;51.86
1848;BME280;924;52.448;13.356;2023-03-21T00:45:01;101070.59;;;13.99;51.60
1848;BME280;924;52.448;13.356;2023-03-21T00:47:26;101067.09;;;13.92;51.95
1848;BME280;924;52.448;13.356;2023-03-21T00:49:52;101065.81;;;13.94;51.51
1848;BME280;924;52.448;13.356;2023-03-21T00:52:17;101060.16;;;13.96;51.64
1848;BME280;924;52.448;13.356;2023-03-21T00:54:42;101065.38;;;14.04;nan
1848;BME280;924;52.448;13.356;2023-03-21T00:57:08;101055.97;;;13.93;51.43
1848;BME280;924;52.448;13.356;2023-03-21T00:59:33;101066.03;;;13.93;50.96
1848;BME280;924;52.448;13.356;2023-03-21T01:01:58;101060.50;;;13.62;52.28
1848;BME280;924;52.448;13.356;2023-03-21T01:04:25;101051.75;;;13.54;52.65
1848;BME280;924;52.448;13.356;2023-03-21T01:06:51;101052.94;;;13.64;52.82
1848;BME280;924;52.448;13.356;2023-03-21T01:09:19;101064.88;;;13.76;52.02
1848;BME280;924;52.448;13.356;2023-03-21T01:11:45;101060.94;;;14.03;51.38
1848;BME280;924;52.448;13.356;2023-03-21T01:14:13;101059.56;;;13.87;51.54
1848;BME280;924;52.448;13.356;2023-03-21T01:16:38;101056.06;;;13.74;52.18
1848;BME280;924;52.448;13.356;2023-03-21T01:19:06;101053.06;;;13.88;51.64
1848;BME280;924;52.448;13.356;2023-03-21T01:21:32;101053.91;;;13.82;51.71
1848;BME280;924;52.448;13.356;2023-03-21T01:23:57;101056.34;;;14.03;51.54
1848;BME280;924;52.448;13.356;2023-03-21T01:26:23;101056.84;;;13.87;51.94
1848;BME280;924;52.448;13.356;2023-03-21T01:28:48;101057.31;;;13.78;51.97
1848;BME280;924;52.448;13.356;2023-03-21T01:31:15;101047.81;;;13.93;51.77
1848;BME280;924;52.448;13.356;2023-03-21T01:33:41;101052.47;;;13.80;52.06
1848;BME280;924;52.448;13.356;2023-03-21T01:36:08;101045.50;;;13.90;51.43
1848;BME280;924;52.448;13.356;2023-03-21T01:38:37;101046.59;;;13.83;51.81
1848;BME280;924;52.448;13.356;2023-03-21T01:41:03;101046.41;;;13.78;51.98
1848;BME280;924;52.448;13.356;2023-03-21T01:43:33;101050.63;;;13.74;52.20
1848;BME280;924;52.448;13.356;2023-03-21T01:48:31;101046.00;;;13.74;52.30
1848;BME280;924;52.448;13.356;2023-03-21T01:50:59;101045.00;;;13.62;52.72
1848;BME280;924;52.448;13.356;2023-03-21T01:53:26;101050.13;;;13.83;52.23
1848;BME280;924;52.448;13.356;2023-03-21T01:55:59;101042.88;;;13.71;52.43
1848;BME280;924;52.448;13.356;2023-03-21T01:58:26;101051.25;;;13.76;52.89
1848;BME280;924;52.448;13.356;2023-03-21T02:00:52;101051.88;;;13.65;52.97
1848;BME280;924;52.448;13.356;2023-03-21T02:03:19;101042.28;;;13.56;53.07
1848;BME280;924;52.448;13.356;2023-03-21T02:05:52;101047.28;;;13.65;53.21
1848;BME280;924;52.448;13.356;2023-03-21T02:08:21;101040.06;;;13.40;54.04
1848;BME280;924;52.448;13.356;2023-03-21T02:10:48;101040.00;;;13.47;54.29
1848;BME280;924;52.448;13.356;2023-03-21T02:13:13;101040.88;;;13.47;53.85
1848;BME280;924;52.448;13.356;2023-03-21T02:15:43;101040.38;;;13.63;53.79
1848;BME280;924;52.448;13.356;2023-03-21T02:18:23;101041.72;;;13.41;54.46
1848;BME280;924;52.448;13.356;2023-03-21T02:26:20;101037.72;;;13.50;54.85
1848;BME280;924;52.448;13.356;2023-03-21T02:29:02;101042.34;;;13.43;54.88
1848;BME280;924;52.448;13.356;2023-03-21T02:31:41;101036.53;;;13.33;55.29
1848;BME280;924;52.448;13.356;2023-03-21T02:39:42;101037.44;;;13.01;56.70
1848;BME280;924;52.448;13.356;2023-03-21T02:42:27;101032.81;;;13.08;56.42
1848;BME280;924;52.448;13.356;2023-03-21T02:47:38;101030.47;;;13.31;55.80
1848;BME280;924;52.448;13.356;2023-03-21T02:50:16;101035.28;;;13.16;56.08
1848;BME280;924;52.448;13.356;2023-03-21T02:52:46;101036.53;;;13.33;55.99
1848;BME280;924;52.448;13.356;2023-03-21T02:55:16;101034.84;;;13.32;56.11
1848;BME280;924;52.448;13.356;2023-03-21T02:57:46;101035.75;;;12.94;57.27
1848;BME280;924;52.448;13.356;2023-03-21T03:00:19;101040.13;;;13.14;56.88
1848;BME280;924;52.448;13.356;2023-03-21T03:02:46;101032.81;;;13.08;57.29
1848;BME280;924;52.448;13.356;2023-03-21T03:05:22;101038.00;;;13.16;56.64
1848;BME280;924;52.448;13.356;2023-03-21T03:08:34;101037.63;;;13.06;57.01
1848;BME280;924;52.448;13.356;2023-03-21T03:11:05;101041.34;;;13.12;57.08
1848;BME280;924;52.448;13.356;2023-03-21T03:18:52;101039.91;;;13.03;57.50
1848;BME280;924;52.448;13.356;2023-03-21T03:21:43;101037.38;;;13.14;57.52
1848;BME280;924;52.448;13.356;2023-03-21T03:24:29;101037.16;;;13.35;57.19
1848;BME280;924;52.448;13.356;2023-03-21T03:29:25;101041.19;;;12.94;59.25
1848;BME280;924;52.448;13.356;2023-03-21T03:32:01;101032.38;;;13.05;59.06
1848;BME280;924;52.448;13.356;2023-03-21T03:34:32;101035.63;;;13.46;57.89
1848;BME280;924;52.448;13.356;2023-03-21T03:37:02;101043.25;;;13.11;59.16
1848;BME280;924;52.448;13.356;2023-03-21T03:39:38;101040.72;;;13.16;58.90
1848;BME280;924;52.448;13.356;2023-03-21T03:42:14;101033.63;;;13.09;59.35
1848;BME280;924;52.448;13.356;2023-03-21T03:44:42;101039.50;;;13.19;59.17
1848;BME280;924;52.448;13.356;2023-03-21T03:47:09;101043.69;;;13.08;59.23
1848;BME280;924;52.448;13.356;2023-03-21T03:49:45;101047.69;;;12.99;59.51
1848;BME280;924;52.448;13.356;2023-03-21T03:52:21;101039.91;;;12.90;60.20
1848;BME280;924;52.448;13.356;2023-03-21T03:54:50;101039.09;;;13.02;59.81
1848;BME280;924;52.448;13.356;2023-03-21T03:57:17;101042.44;;;12.78;60.28
1848;BME280;924;52.448;13.356;2023-03-21T03:59:44;101044.72;;;12.88;60.42
1848;BME280;924;52.448;13.356;2023-03-21T04:02:11;101044.13;;;13.05;59.80
1848;BME280;924;52.448;13.356;2023-03-21T04:04:36;101045.34;;;12.57;60.96
1848;BME280;924;52.448;13.356;2023-03-21T04:07:03;101038.44;;;12.68;60.98
1848;BME280;924;52.448;13.356;2023-03-21T04:09:29;101035.53;;;12.89;59.73
1848;BME280;924;52.448;13.356;2023-03-21T04:11:55;101041.38;;;12.79;60.51
1848;BME280;924;52.448;13.356;2023-03-21T04:14:21;101038.25;;;12.82;60.14
1848;BME280;924;52.448;13.356;2023-03-21T04:16:46;101031.75;;;12.70;60.33
1848;BME280;924;52.448;13.356;2023-03-21T04:19:12;101036.56;;;12.81;60.05
1848;BME280;924;52.448;13.356;2023-03-21T04:21:37;101032.38;;;13.11;59.73
1848;BME280;924;52.448;13.356;2023-03-21T04:24:03;101034.66;;;12.88;60.21
1848;BME280;924;52.448;13.356;2023-03-21T04:26:29;101040.34;;;13.00;60.03
1848;BME280;924;52.448;13.356;2023-03-21T04:28:58;101040.75;;;12.77;60.97
1848;BME280;924;52.448;13.356;2023-03-21T04:31:31;101036.13;;;12.84;60.61
1848;BME280;924;52.448;13.356;2023-03-21T04:34:01;101037.22;;;12.77;60.89
1848;BME280;924;52.448;13.356;2023-03-21T04:36:27;101039.09;;;13.02;60.48
1848;BME280;924;52.448;13.356;2023-03-21T04:39:03;101038.44;;;12.74;61.45
1848;BME280;924;52.448;13.356;2023-03-21T04:41:34;101046.22;;;12.64;61.77
1848;BME280;924;52.448;13.356;2023-03-21T04:44:01;101045.34;;;12.44;62.79
1848;BME280;924;52.448;13.356;2023-03-21T04:46:26;101036.78;;;12.41;62.88
1848;BME280;924;52.448;13.356;2023-03-21T04:48:52;101035.34;;;12.64;62.49
1848;BME280;924;52.448;13.356;2023-03-21T04:51:17;101031.56;;;12.65;62.46
1848;BME280;924;52.448;13.356;2023-03-21T04:53:42;101032.59;;;12.64;62.37
1848;BME280;924;52.448;13.356;2023-03-21T04:56:11;101037.41;;;12.82;61.84
1848;BME280;924;52.448;13.356;2023-03-21T04:58:36;101038.66;;;12.47;62.85
1848;BME280;924;52.448;13.356;2023-03-21T05:01:03;101043.69;;;12.50;63.15
1848;BME280;924;52.448;13.356;2023-03-21T05:03:30;101044.31;;;12.58;63.02
1848;BME280;924;52.448;13.356;2023-03-21T05:06:01;101031.97;;;12.69;62.94
1848;BME280;924;52.448;13.356;2023-03-21T05:08:27;101033.00;;;12.87;62.42
1848;BME280;924;52.448;13.356;2023-03-21T05:10:52;101026.53;;;12.62;62.84
1848;BME280;924;52.448;13.356;2023-03-21T05:13:18;101033.22;;;12.53;63.00
1848;BME280;924;52.448;13.356;2023-03-21T05:15:43;101032.59;;;12.64;63.00
1848;BME280;924;52.448;13.356;2023-03-21T05:18:08;101029.88;;;12.77;62.69
1848;BME280;924;52.448;13.356;2023-03-21T05:20:38;101031.34;;;12.93;62.26
1848;BME280;924;52.448;13.356;2023-03-21T05:23:10;101030.50;;;12.79;62.18
1848;BME280;924;52.448;13.356;2023-03-21T05:25:38;101031.53;;;12.72;62.67
1848;BME280;924;52.448;13.356;2023-03-21T05:28:06;101031.53;;;12.78;62.73
1848;BME280;924;52.448;13.356;2023-03-21T05:30:32;101032.38;;;12.46;63.70
1848;BME280;924;52.448;13.356;2023-03-21T05:32:57;101031.34;;;12.60;63.24
1848;BME280;924;52.448;13.356;2023-03-21T05:35:23;101028.00;;;12.65;63.36
1848;BME280;924;52.448;13.356;2023-03-21T05:37:49;101030.72;;;12.65;63.75
1848;BME280;924;52.448;13.356;2023-03-21T05:40:14;101029.88;;;12.64;63.28
1848;BME280;924;52.448;13.356;2023-03-21T05:42:40;101027.38;;;12.50;64.06
1848;BME280;924;52.448;13.356;2023-03-21T05:45:06;101035.72;;;12.48;64.13
1848;BME280;924;52.448;13.356;2023-03-21T05:47:31;101040.75;;;12.58;63.99
1848;BME280;924;52.448;13.356;2023-03-21T05:49:57;101034.69;;;12.62;64.16
1848;BME280;924;52.448;13.356;2023-03-21T05:52:22;101033.63;;;12.37;64.82
1848;BME280;924;52.448;13.356;2023-03-21T05:54:48;101039.06;;;12.24;65.45
1848;BME280;924;52.448;13.356;2023-03-21T05:57:13;101038.22;;;12.30;65.38
1848;BME280;924;52.448;13.356;2023-03-21T05:59:39;101031.97;;;12.56;64.78
1848;BME280;924;52.448;13.356;2023-03-21T06:02:05;101037.81;;;12.66;64.70
1848;BME280;924;52.448;13.356;2023-03-21T06:04:30;101036.53;;;12.36;65.14
1848;BME280;924;52.448;13.356;2023-03-21T06:06:55;101037.41;;;12.36;65.56
1848;BME280;924;52.448;13.356;2023-03-21T06:09:21;101041.59;;;12.52;64.95
1848;BME280;924;52.448;13.356;2023-03-21T06:11:49;101045.56;;;12.43;65.67
1848;BME280;924;52.448;13.356;2023-03-21T06:14:16;101044.09;;;12.60;65.02
1848;BME280;924;52.448;13.356;2023-03-21T06:16:42;101052.88;;;12.42;65.33
1848;BME280;924;52.448;13.356;2023-03-21T06:19:07;101052.25;;;12.53;64.86
1848;BME280;924;52.448;13.356;2023-03-21T06:21:33;101054.53;;;12.43;65.37
1848;BME280;924;52.448;13.356;2023-03-21T06:23:58;101048.28;;;12.49;65.34
1848;BME280;924;52.448;13.356;2023-03-21T06:26:23;101045.13;;;12.52;64.92
1848;BME280;924;52.448;13.356;2023-03-21T06:28:49;101045.13;;;12.72;64.50
1848;BME280;924;52.448;13.356;2023-03-21T06:31:15;101044.69;;;12.23;66.01
1848;BME280;924;52.448;13.356;2023-03-21T06:33:41;101049.09;;;12.43;65.58
1848;BME280;924;52.448;13.356;2023-03-21T06:36:07;101050.78;;;12.31;65.97
1848;BME280;924;52.448;13.356;2023-03-21T06:38:32;101053.09;;;12.34;65.64
1848;BME280;924;52.448;13.356;2023-03-21T06:41:02;101049.50;;;12.21;66.49
1848;BME280;924;52.448;13.356;2023-03-21T06:43:29;101057.69;;;12.47;65.65
1848;BME280;924;52.448;13.356;2023-03-21T06:45:55;101053.28;;;12.26;66.32
1848;BME280;924;52.448;13.356;2023-03-21T06:48:21;101054.31;;;12.32;66.24
1848;BME280;924;52.448;13.356;2023-03-21T06:50:49;101050.13;;;12.23;66.70
1848;BME280;924;52.448;13.356;2023-03-21T06:53:16;101062.91;;;12.22;67.32
1848;BME280;924;52.448;13.356;2023-03-21T06:55:42;101058.28;;;12.36;67.11
1848;BME280;924;52.448;13.356;2023-03-21T06:58:07;101059.56;;;12.46;67.23
1848;BME280;924;52.448;13.356;2023-03-21T07:00:33;101063.78;;;12.49;67.32
1848;BME280;924;52.448;13.356;2023-03-21T07:02:58;101054.34;;;12.51;66.80
1848;BME280;924;52.448;13.356;2023-03-21T07:05:25;101065.22;;;12.51;67.32
1848;BME280;924;52.448;13.356;2023-03-21T07:07:51;101065.22;;;12.38;68.11
1848;BME280;924;52.448;13.356;2023-03-21T07:10:16;101058.53;;;12.47;67.78
1848;BME280;924;52.448;13.356;2023-03-21T07:12:42;101066.69;;;12.41;67.50
1848;BME280;924;52.448;13.356;2023-03-21T07:15:08;101063.56;;;12.57;67.49
1848;BME280;924;52.448;13.356;2023-03-21T07:17:34;101065.25;;;12.64;67.40
1848;BME280;924;52.448;13.356;2023-03-21T07:19:59;101059.59;;;12.59;67.26
1848;BME280;924;52.448;13.356;2023-03-21T07:22:25;101062.94;;;12.42;67.85
1848;BME280;924;52.448;13.356;2023-03-21T07:24:50;101069.44;;;12.60;67.84
1848;BME280;924;52.448;13.356;2023-03-21T07:27:16;101059.75;;;12.25;68.65
1848;BME280;924;52.448;13.356;2023-03-21T07:29:42;101059.16;;;12.36;68.40
1848;BME280;924;52.448;13.356;2023-03-21T07:32:11;101066.25;;;12.24;69.20
1848;BME280;924;52.448;13.356;2023-03-21T07:34:37;101067.03;;;12.18;69.97
1848;BME280;924;52.448;13.356;2023-03-21T07:37:03;101071.28;;;12.40;68.96
1848;BME280;924;52.448;13.356;2023-03-21T07:39:31;101069.13;;;12.16;69.97
1848;BME280;924;52.448;13.356;2023-03-21T07:41:57;101070.47;;;12.53;69.06
1848;BME280;924;52.448;13.356;2023-03-21T07:44:23;101076.91;;;12.32;69.27
1848;BME280;924;52.448;13.356;2023-03-21T07:46:49;101072.53;;;12.44;69.31
1848;BME280;924;52.448;13.356;2023-03-21T07:49:15;101075.47;;;12.43;69.18
1848;BME280;924;52.448;13.356;2023-03-21T07:51:40;101072.09;;;12.21;70.01
1848;BME280;924;52.448;13.356;2023-03-21T07:54:05;101069.22;;;12.62;68.86
1848;BME280;924;52.448;13.356;2023-03-21T07:56:31;101066.88;;;12.52;68.87
1848;BME280;924;52.448;13.356;2023-03-21T07:58:56;101064.78;;;12.28;69.63
1848;BME280;924;52.448;13.356;2023-03-21T08:01:24;101058.31;;;12.55;68.68
1848;BME280;924;52.448;13.356;2023-03-21T08:03:49;101060.66;;;12.58;68.75
1848;BME280;924;52.448;13.356;2023-03-21T08:06:20;101060.41;;;12.53;69.24
1848;BME280;924;52.448;13.356;2023-03-21T08:08:46;101065.03;;;12.40;69.79
1848;BME280;924;52.448;13.356;2023-03-21T08:11:12;101064.19;;;12.59;69.40
1848;BME280;924;52.448;13.356;2023-03-21T08:13:37;101063.75;;;12.75;68.49
1848;BME280;924;52.448;13.356;2023-03-21T08:16:03;101057.31;;;12.76;68.51
1848;BME280;924;52.448;13.356;2023-03-21T08:18:29;101062.94;;;12.68;68.62
1848;BME280;924;52.448;13.356;2023-03-21T08:20:55;101060.41;;;12.60;69.04
1848;BME280;924;52.448;13.356;2023-03-21T08:23:21;101057.91;;;12.71;69.08
1848;BME280;924;52.448;13.356;2023-03-21T08:25:54;101057.88;;;12.39;70.96
1848;BME280;924;52.448;13.356;2023-03-21T08:28:20;101067.00;;;11.93;72.91
1848;BME280;924;52.448;13.356;2023-03-21T08:30:46;101063.53;;;12.24;72.68
1848;BME280;924;52.448;13.356;2023-03-21T08:33:11;101067.50;;;12.35;72.64
1848;BME280;924;52.448;13.356;2023-03-21T08:35:41;101069.44;;;12.60;71.79
1848;BME280;924;52.448;13.356;2023-03-21T08:38:07;101067.56;;;12.67;71.66
1848;BME280;924;52.448;13.356;2023-03-21T08:40:33;101056.03;;;12.78;70.78
1848;BME280;924;52.448;13.356;2023-03-21T08:42:59;101059.59;;;12.79;71.60
1848;BME280;924;52.448;13.356;2023-03-21T08:45:24;101066.88;;;12.52;72.54
1848;BME280;924;52.448;13.356;2023-03-21T08:47:52;101064.19;;;12.65;71.98
1848;BME280;924;52.448;13.356;2023-03-21T08:50:20;101067.13;;;12.51;72.96
1848;BME280;924;52.448;13.356;2023-03-21T08:52:46;101055.84;;;12.60;72.75
1848;BME280;924;52.448;13.356;2023-03-21T08:55:13;101063.56;;;12.44;73.49
1848;BME280;924;52.448;13.356;2023-03-21T08:57:40;101067.47;;;12.22;73.67
1848;BME280;924;52.448;13.356;2023-03-21T09:00:07;101060.13;;;12.09;74.99
1848;BME280;924;52.448;13.356;2023-03-21T09:02:40;101067.94;;;12.51;73.18
1848;BME280;924;52.448;13.356;2023-03-21T09:05:06;101064.59;;;12.43;73.58
1848;BME280;924;52.448;13.356;2023-03-21T09:07:33;101068.59;;;12.47;73.09
1848;BME280;924;52.448;13.356;2023-03-21T09:10:03;101065.84;;;12.47;73.24
1848;BME280;924;52.448;13.356;2023-03-21T09:12:30;101064.16;;;12.39;73.28
1848;BME280;924;52.448;13.356;2023-03-21T09:14:56;101070.22;;;12.41;73.21
1848;BME280;924;52.448;13.356;2023-03-21T09:17:21;101068.78;;;12.52;72.75
1848;BME280;924;52.448;13.356;2023-03-21T09:19:47;101069.81;;;12.31;74.02
1848;BME280;924;52.448;13.356;2023-03-21T09:22:13;101071.00;;;12.03;74.93
1848;BME280;924;52.448;13.356;2023-03-21T09:24:42;101071.84;;;12.16;74.32
1848;BME280;924;52.448;13.356;2023-03-21T09:27:12;101069.47;;;11.94;75.31
1848;BME280;924;52.448;13.356;2023-03-21T09:29:38;101066.81;;;12.13;75.17
1848;BME280;924;52.448;13.356;2023-03-21T09:32:08;101065.19;;;12.25;74.65
1848;BME280;924;52.448;13.356;2023-03-21T09:34:34;101070.25;;;12.54;73.60
1848;BME280;924;52.448;13.356;2023-03-21T09:37:06;101066.28;;;12.57;73.07
1848;BME280;924;52.448;13.356;2023-03-21T09:39:35;101059.59;;;12.72;72.77
1848;BME280;924;52.448;13.356;2023-03-21T09:47:49;101056.44;;;12.88;71.29
1848;BME280;924;52.448;13.356;2023-03-21T09:50:36;101058.78;;;12.98;71.36
1848;BME280;924;52.448;13.356;2023-03-21T09:53:08;101055.19;;;12.65;72.41
1848;BME280;924;52.448;13.356;2023-03-21T09:55:37;101055.00;;;12.99;71.02
1848;BME280;924;52.448;13.356;2023-03-21T09:58:24;101049.56;;;12.99;71.38
1848;BME280;924;52.448;13.356;2023-03-21T10:01:00;101049.34;;;12.81;71.92
1848;BME280;924;52.448;13.356;2023-03-21T10:03:31;101046.63;;;12.61;71.74
1848;BME280;924;52.448;13.356;2023-03-21T10:06:03;101042.00;;;12.81;71.56
1848;BME280;924;52.448;13.356;2023-03-21T10:08:35;101050.41;;;12.99;70.87
1848;BME280;924;52.448;13.356;2023-03-21T10:11:16;101035.28;;;12.90;70.85
1848;BME280;924;52.448;13.356;2023-03-21T10:13:49;101039.09;;;12.83;70.69
1848;BME280;924;52.448;13.356;2023-03-21T10:16:22;101040.34;;;13.00;70.30
1848;BME280;924;52.448;13.356;2023-03-21T10:18:50;101039.09;;;12.83;71.29
1848;BME280;924;52.448;13.356;2023-03-21T10:21:22;101039.50;;;12.80;71.58
1848;BME280;924;52.448;13.356;2023-03-21T10:23:50;101041.00;;;12.95;70.75
1848;BME280;924;52.448;13.356;2023-03-21T10:26:18;101041.41;;;12.99;70.79
1848;BME280;924;52.448;13.356;2023-03-21T10:28:45;101030.47;;;13.12;69.96
1848;BME280;924;52.448;13.356;2023-03-21T10:31:15;101031.03;;;13.46;68.56
1848;BME280;924;52.448;13.356;2023-03-21T10:33:43;101019.78;;;13.23;68.49
1848;BME280;924;52.448;13.356;2023-03-21T10:36:13;101022.31;;;13.18;69.82
1848;BME280;924;52.448;13.356;2023-03-21T10:38:48;101022.97;;;13.07;70.21
1848;BME280;924;52.448;13.356;2023-03-21T10:41:15;101017.56;;;12.94;70.74
1848;BME280;924;52.448;13.356;2023-03-21T10:43:42;101020.66;;;13.04;70.97
1848;BME280;924;52.448;13.356;2023-03-21T10:46:17;101018.38;;;13.01;71.16
1848;BME280;924;52.448;13.356;2023-03-21T10:48:49;101013.94;;;13.13;70.38
1848;BME280;924;52.448;13.356;2023-03-21T10:51:21;101011.41;;;13.25;70.20
1848;BME280;924;52.448;13.356;2023-03-21T10:53:51;101009.28;;;13.33;69.75
1848;BME280;924;52.448;13.356;2023-03-21T10:56:22;101008.25;;;13.78;68.19
1848;BME280;924;52.448;13.356;2023-03-21T10:58:48;101014.94;;;13.82;67.93
1848;BME280;924;52.448;13.356;2023-03-21T11:01:27;101009.06;;;13.78;67.50
1848;BME280;924;52.448;13.356;2023-03-21T11:03:57;101017.50;;;13.77;67.68
1848;BME280;924;52.448;13.356;2023-03-21T11:06:31;101005.56;;;13.65;67.23
1848;BME280;924;52.448;13.356;2023-03-21T11:09:16;101005.31;;;13.79;66.62
1848;BME280;924;52.448;13.356;2023-03-21T11:12:07;101006.94;;;13.50;67.36
1848;BME280;924;52.448;13.356;2023-03-21T11:14:43;100999.31;;;13.58;67.28
1848;BME280;924;52.448;13.356;2023-03-21T11:17:19;101001.25;;;13.51;67.98
1848;BME280;924;52.448;13.356;2023-03-21T11:22:20;101007.91;;;13.61;67.75
1848;BME280;924;52.448;13.356;2023-03-21T11:24:52;101003.81;;;13.40;68.29
1848;BME280;924;52.448;13.356;2023-03-21T11:27:18;100998.50;;;13.57;67.43
1848;BME280;924;52.448;13.356;2023-03-21T11:29:47;100991.78;;;13.60;67.57
1848;BME280;924;52.448;13.356;2023-03-21T11:32:21;100989.72;;;13.56;67.90
1848;BME280;924;52.448;13.356;2023-03-21T11:34:55;100982.66;;;13.85;66.77
1848;BME280;924;52.448;13.356;2023-03-21T11:37:36;100976.84;;;14.06;66.43
1848;BME280;924;52.448;13.356;2023-03-21T11:42:47;100972.56;;;13.86;66.91
1848;BME280;924;52.448;13.356;2023-03-21T11:45:22;100976.63;;;14.08;66.56
1848;BME280;924;52.448;13.356;2023-03-21T11:47:49;100968.22;;;14.16;66.04
1848;BME280;924;52.448;13.356;2023-03-21T11:50:20;100968.63;;;14.13;66.62
1848;BME280;924;52.448;13.356;2023-03-21T11:53:11;100958.94;;;14.23;65.51
1848;BME280;924;52.448;13.356;2023-03-21T11:56:26;100960.66;;;14.11;66.08
1848;BME280;924;52.448;13.356;2023-03-21T12:06:45;100950.16;;;14.46;65.01
1848;BME280;924;52.448;13.356;2023-03-21T12:09:43;100942.41;;;14.43;65.59
1848;BME280;924;52.448;13.356;2023-03-21T12:12:41;100946.69;;;14.32;65.70
1848;BME280;924;52.448;13.356;2023-03-21T12:20:38;100940.66;;;13.93;66.57
1848;BME280;924;52.448;13.356;2023-03-21T12:23:12;100937.31;;;14.46;65.27
1848;BME280;924;52.448;13.356;2023-03-21T12:25:45;100935.31;;;14.60;64.43
1848;BME280;924;52.448;13.356;2023-03-21T12:41:27;100908.00;;;14.42;64.65
1848;BME280;924;52.448;13.356;2023-03-21T12:44:14;100914.94;;;14.62;64.27
1848;BME280;924;52.448;13.356;2023-03-21T12:46:49;100913.19;;;13.94;66.29
1848;BME280;924;52.448;13.356;2023-03-21T12:51:49;100908.28;;;14.34;65.00
1848;BME280;924;52.448;13.356;2023-03-21T12:57:25;100904.47;;;14.59;64.28
1848;BME280;924;52.448;13.356;2023-03-21T13:07:53;100887.22;;;15.01;62.78
1848;BME280;924;52.448;13.356;2023-03-21T13:10:22;100883.78;;;15.06;62.33
1848;BME280;924;52.448;13.356;2023-03-21T13:13:19;100878.25;;;14.76;63.26
1848;BME280;924;52.448;13.356;2023-03-21T13:16:01;100875.75;;;14.93;63.35
1848;BME280;924;52.448;13.356;2023-03-21T13:21:39;100867.31;;;14.94;63.05
1848;BME280;924;52.448;13.356;2023-03-21T13:24:25;100867.03;;;14.66;64.26
1848;BME280;924;52.448;13.356;2023-03-21T13:27:04;100865.66;;;14.75;63.68
1848;BME280;924;52.448;13.356;2023-03-21T13:32:37;100859.72;;;15.14;62.59
1848;BME280;924;52.448;13.356;2023-03-21T13:37:52;100863.53;;;15.13;62.44
1848;BME280;924;52.448;13.356;2023-03-21T13:40:34;100859.31;;;14.99;62.79
1848;BME280;924;52.448;13.356;2023-03-21T13:43:01;100854.34;;;15.07;62.43
1848;BME280;924;52.448;13.356;2023-03-21T13:45:51;100842.00;;;14.87;63.38
1848;BME280;924;52.448;13.356;2023-03-21T13:48:28;100851.09;;;14.81;63.52
1848;BME280;924;52.448;13.356;2023-03-21T13:51:02;100850.13;;;14.76;63.92
1848;BME280;924;52.448;13.356;2023-03-21T13:53:35;100845.34;;;14.89;63.80
1848;BME280;924;52.448;13.356;2023-03-21T13:56:19;100845.94;;;14.91;63.49
1848;BME280;924;52.448;13.356;2023-03-21T14:03:59;100843.75;;;14.46;65.47
1848;BME280;924;52.448;13.356;2023-03-21T14:06:35;100843.81;;;14.39;65.70
1848;BME280;924;52.448;13.356;2023-03-21T14:09:02;100842.84;;;14.70;64.75
1848;BME280;924;52.448;13.356;2023-03-21T14:11:30;100846.69;;;14.44;65.83
1848;BME280;924;52.448;13.356;2023-03-21T14:13:58;100834.66;;;14.70;65.33
1848;BME280;924;52.448;13.356;2023-03-21T14:16:25;100836.31;;;14.71;65.55
1848;BME280;924;52.448;13.356;2023-03-21T14:19:02;100838.13;;;14.95;65.13
1848;BME280;924;52.448;13.356;2023-03-21T14:21:34;100831.00;;;14.76;65.61
1848;BME280;924;52.448;13.356;2023-03-21T14:26:28;100827.69;;;14.92;65.12
1848;BME280;924;52.448;13.356;2023-03-21T14:28:54;100820.03;;;15.00;64.87
1848;BME280;924;52.448;13.356;2023-03-21T14:31:20;100816.88;;;15.14;64.82
1848;BME280;924;52.448;13.356;2023-03-21T14:33:55;100815.13;;;14.55;66.33
1848;BME280;924;52.448;13.356;2023-03-21T14:36:30;100814.81;;;14.81;65.85
1848;BME280;924;52.448;13.356;2023-03-21T14:39:09;100808.91;;;14.48;66.66
1848;BME280;924;52.448;13.356;2023-03-21T14:41:47;100810.25;;;15.22;64.40
1848;BME280;924;52.448;13.356;2023-03-21T14:44:14;100805.44;;;15.06;64.56
1848;BME280;924;52.448;13.356;2023-03-21T14:46:41;100805.13;;;15.14;64.57
1848;BME280;924;52.448;13.356;2023-03-21T14:49:18;100806.25;;;14.59;66.80
1848;BME280;924;52.448;13.356;2023-03-21T14:51:45;100799.59;;;15.03;65.36
1848;BME280;924;52.448;13.356;2023-03-21T14:54:13;100789.84;;;14.95;65.41